»·PEaware :: N6999J KSMO-KSBA

N6999J :: KSMO-KSBA

FLIGHT INFORMATION

Flight Status: Arrived
Operator: Privately registered:
United States
More flights under this callsign
Pilot: Bryan N. (13862)
Aircraft: PIPER PA-28R-201 ARROW
(P28R)
More flights by this aircraft type
Origin: KSMO Santa Monica Mun
United States
Destination: KSBA Santa Barbara Mun
United States
More flights between these airports :: More routes between these airports
Route: SLI V8 PDZ
File this flight plan on PilotEdge
Remarks: TEC route SMOP38
Altitude:
(Current/Filed)
6,000ft
Speed:
(Current/Filed)
135kts
Departed: 26-Jul-20 08:19 AM
Arrived: 26-Jul-20 09:08 AM
Distance/Time
Traveled:
73nm/0:49
Distance/Time
To Go:
Arrived

Flight Plot

Page will automatically refresh every two minutes.


Map Options




Map Legend


Flown Route
Filed Route
Departure Airport
Arrival Airport
Navaid (VOR, NDB)
Fix

Horizontal Profiles

Position Reports

Time Latitude Longitude Heading Altitude Ground
Speed
26-Jul-20 07:49 34.012458 -118.453079 134 178ft 0kts
26-Jul-20 07:50 34.012458 -118.453079 134 178ft 0kts
26-Jul-20 07:51 34.012458 -118.453079 134 178ft 0kts
26-Jul-20 07:52 34.012458 -118.453079 134 178ft 0kts
26-Jul-20 07:53 34.012458 -118.453079 134 178ft 0kts
26-Jul-20 07:54 34.012458 -118.453079 134 178ft 0kts
26-Jul-20 07:55 34.012458 -118.453079 134 178ft 0kts
26-Jul-20 07:56 34.012458 -118.453079 134 178ft 0kts
26-Jul-20 07:57 34.012458 -118.453079 134 178ft 0kts
26-Jul-20 07:58 34.012458 -118.453079 134 178ft 0kts
26-Jul-20 07:59 34.012458 -118.453079 134 178ft 0kts
26-Jul-20 08:00 34.012458 -118.453079 134 178ft 0kts
26-Jul-20 08:01 34.012457 -118.453078 134 178ft 0kts
26-Jul-20 08:02 34.012449 -118.453067 134 178ft 1kts
26-Jul-20 08:03 34.012422 -118.453037 138 178ft 0kts
26-Jul-20 08:04 34.012420 -118.453034 138 178ft 0kts
26-Jul-20 08:05 34.012417 -118.453031 138 178ft 0kts
26-Jul-20 08:06 34.012414 -118.453029 138 178ft 0kts
26-Jul-20 08:07 34.012133 -118.453089 234 178ft 7kts
26-Jul-20 08:08 34.013149 -118.453322 23 178ft 9kts
26-Jul-20 08:09 34.015628 -118.450399 46 178ft 14kts
26-Jul-20 08:10 34.018267 -118.447175 7 178ft 9kts
26-Jul-20 08:11 34.018600 -118.447081 97 178ft 0kts
26-Jul-20 08:12 34.018599 -118.447075 97 178ft 0kts
26-Jul-20 08:13 34.018599 -118.447069 97 178ft 0kts
26-Jul-20 08:14 34.018598 -118.447066 97 178ft 0kts
26-Jul-20 08:15 34.018598 -118.447063 97 178ft 0kts
26-Jul-20 08:16 34.018624 -118.446680 63 178ft 8kts
26-Jul-20 08:17 34.019073 -118.447242 297 178ft 7kts
26-Jul-20 08:18 34.005681 -118.461529 223 640ft 101kts
26-Jul-20 08:19 33.985240 -118.487782 252 1628ft 120kts
26-Jul-20 08:20 33.990529 -118.527761 287 2615ft 121kts
26-Jul-20 08:21 34.000155 -118.566171 287 3558ft 114kts
26-Jul-20 08:22 34.008717 -118.602638 285 4448ft 111kts
26-Jul-20 08:23 34.017565 -118.639702 283 5262ft 114kts
26-Jul-20 08:24 34.026263 -118.677677 284 5937ft 121kts
26-Jul-20 08:25 34.037174 -118.722083 285 6027ft 151kts
26-Jul-20 08:26 34.049453 -118.773450 285 5973ft 171kts
26-Jul-20 08:27 34.061889 -118.826710 283 5972ft 162kts
26-Jul-20 08:28 34.073560 -118.878911 285 5972ft 160kts
26-Jul-20 08:29 34.086183 -118.930551 285 5974ft 160kts
26-Jul-20 08:30 34.098892 -118.982197 286 5985ft 162kts
26-Jul-20 08:31 34.111423 -119.034528 285 5983ft 161kts
26-Jul-20 08:32 34.127904 -119.084301 296 5982ft 160kts
26-Jul-20 08:33 34.147798 -119.132336 298 5983ft 159kts
26-Jul-20 08:34 34.168518 -119.179911 299 5978ft 159kts
26-Jul-20 08:35 34.189405 -119.227323 298 5975ft 159kts
26-Jul-20 08:36 34.209953 -119.274812 298 5821ft 165kts
26-Jul-20 08:37 34.230488 -119.325172 296 5374ft 164kts
26-Jul-20 08:38 34.250751 -119.374830 297 4780ft 166kts
26-Jul-20 08:39 34.271439 -119.424017 296 4278ft 162kts
26-Jul-20 08:40 34.290841 -119.473052 297 3757ft 161kts
26-Jul-20 08:41 34.310270 -119.519783 297 3499ft 146kts
26-Jul-20 08:42 34.326370 -119.562765 293 3469ft 137kts
26-Jul-20 08:43 34.343050 -119.604953 296 3117ft 142kts
26-Jul-20 08:44 34.360077 -119.647908 296 2476ft 140kts
26-Jul-20 08:45 34.376037 -119.688543 296 2102ft 122kts
26-Jul-20 08:46 34.388760 -119.721970 295 1900ft 101kts
26-Jul-20 08:47 34.400733 -119.752278 297 1506ft 99kts
26-Jul-20 08:48 34.412111 -119.782595 293 1077ft 97kts
26-Jul-20 08:49 34.423196 -119.812029 294 912ft 95kts
26-Jul-20 08:50 34.417617 -119.839906 210 1617ft 110kts
26-Jul-20 08:51 34.390816 -119.860519 221 2647ft 117kts
26-Jul-20 08:52 34.379407 -119.897896 259 3579ft 121kts
26-Jul-20 08:53 34.372228 -119.939185 259 4008ft 137kts
26-Jul-20 08:54 34.366934 -119.986355 265 4058ft 142kts
26-Jul-20 08:55 34.363335 -120.034477 263 4052ft 146kts
26-Jul-20 08:56 34.358062 -120.083626 264 4020ft 148kts
26-Jul-20 08:57 34.353408 -120.132905 263 4005ft 147kts
26-Jul-20 08:58 34.378513 -120.152188 41 3780ft 147kts
26-Jul-20 08:59 34.404255 -120.114193 55 3408ft 143kts
26-Jul-20 09:00 34.424667 -120.073416 81 2831ft 144kts
26-Jul-20 09:01 34.424213 -120.025829 91 2407ft 139kts
26-Jul-20 09:02 34.424687 -119.980647 90 2115ft 115kts
26-Jul-20 09:03 34.425803 -119.944378 87 1533ft 105kts
26-Jul-20 09:04 34.426416 -119.908984 88 977ft 102kts
26-Jul-20 09:05 34.427032 -119.874122 89 380ft 104kts
26-Jul-20 09:06 34.427723 -119.844353 88 13ft 48kts
26-Jul-20 09:07 34.428835 -119.841852 348 13ft 7kts
26-Jul-20 09:08 34.430330 -119.842982 145 13ft 0kts
26-Jul-20 09:09 34.430329 -119.842981 145 13ft 0kts

Navigation Log

Ident Type
Flight plan parsing failed, navigation log unavailable